Latest Weather Observations for Armidale Airport

IDN60801

Issued at 5:13 pm EDT Saturday 5 December 2020 (issued every 10 minutes, with the page automatically refreshed every 10 minutes)

About weather observations | Map of weather stations | Latest weather observations for NSW | Other Formats
Station Details ID: 056238 Name: ARMIDALE AIRPORT AWS Lat: -30.53 Lon: 151.62 Height: 1079.0 m
Data from the previous 72 hours. | See also: Recent months at Armidale Airport
Date/Time
EDT
Temp
°C
App
Temp
°C
Dew
Point
°C
Rel
Hum
%
Delta-T
°C
Wind Press
QNH
hPa
Press
MSL
hPa
Rain since
9am
mm
Dir  Spd
km/h
Gust
km/h
Spd
kts
Gust
kts
05/05:00pm 27.2 25.1 15.2 47 7.6 NW 20 30 11 16 1012.7 1007.1 0.0
05/04:30pm 27.4 23.6 14.8 46 8.0 NW 28 37 15 20 1012.9 1007.3 0.0
05/04:00pm 28.7 24.3 14.1 40 9.2 NW 30 41 16 22 1012.7 1007.1 0.0
05/03:30pm 29.0 25.3 15.9 45 8.4 NW 30 44 16 24 1013.1 1007.6 0.0
05/03:00pm 28.5 24.6 14.3 41 8.9 NW 28 46 15 25 1013.5 1007.9 0.0
05/02:59pm 28.6 24.7 14.4 41 8.9 NW 28 46 15 25 1013.5 1007.9 0.0
05/02:30pm 29.9 25.3 16.0 43 9.0 NW 35 46 19 25 1014.3 1008.7 0.0
05/02:02pm 29.1 25.2 15.6 44 8.7 NW 30 48 16 26 1014.8 1009.3 0.0
05/02:00pm 29.0 24.6 15.2 43 8.8 NW 32 48 17 26 1014.8 1009.3 0.0
05/01:30pm 28.7 23.9 15.6 45 8.4 NW 35 44 19 24 1015.3 1009.7 0.0
05/01:00pm 28.9 24.9 15.1 43 8.8 NW 30 46 16 25 1015.5 1009.9 0.0
05/12:30pm 30.0 26.2 16.8 45 8.6 NW 32 44 17 24 1015.9 1010.4 0.0
05/12:00pm 29.4 26.2 16.2 44 8.6 NW 28 39 15 21 1016.4 1010.8 0.0
05/11:30am 29.2 27.2 16.4 46 8.3 NW 22 39 12 21 1016.5 1011.0 0.0
05/11:00am 28.4 26.9 16.3 47 7.8 NW 19 32 10 17 1016.9 1011.4 0.0
05/10:30am 28.7 27.2 14.1 40 9.2 NW 15 24 8 13 1016.9 1011.4 0.0
05/10:00am 28.1 26.0 12.5 38 9.5 NNW 15 30 8 16 1017.4 1011.9 0.0
05/09:30am 26.9 26.6 14.3 46 7.9 NNE 9 15 5 8 1017.8 1012.3 0.0
05/09:00am 25.4 25.6 16.8 59 5.6 ENE 11 13 6 7 1017.9 1012.4 0.0
05/08:30am 23.8 25.3 18.0 70 3.8 ENE 7 9 4 5 1018.0 1012.5 0.0
05/08:00am 21.6 22.5 17.6 78 2.6 NE 9 11 5 6 1018.1 1012.7 0.0
05/07:30am 19.7 20.2 16.5 82 2.0 ENE 9 13 5 7 1017.8 1012.3 0.0
05/07:00am 18.5 18.4 15.9 85 1.6 ENE 11 15 6 8 1017.5 1012.0 0.0
05/06:30am 17.4 17.5 16.4 94 0.6 ENE 11 13 6 7 1017.3 1011.8 0.0
05/06:00am 15.7 15.3 15.2 97 0.3 ENE 11 11 6 6 1016.9 1011.4 0.0
05/05:30am 15.4 14.9 14.8 96 0.4 ENE 11 13 6 7 1017.1 1011.6 0.0
05/05:00am 15.8 15.3 14.8 94 0.6 ENE 11 13 6 7 1016.9 1011.4 0.0
05/04:30am 16.5 16.3 15.7 95 0.5 E 11 13 6 7 1016.9 1011.4 0.0
05/04:00am 16.7 16.7 16.2 97 0.3 E 11 13 6 7 1016.9 1011.4 0.0
05/03:30am 16.1 16.3 15.8 98 0.2 ENE 9 11 5 6 1016.8 1011.3 0.0
05/03:00am 16.4 15.9 15.9 97 0.3 NE 13 15 7 8 1016.7 1011.2 0.0
05/02:30am 16.7 16.5 15.7 94 0.6 ENE 11 11 6 6 1016.9 1011.4 0.0
05/02:00am 17.4 17.0 16.3 93 0.7 ENE 13 15 7 8 1017.4 1011.9 0.0
05/01:30am 17.6 17.3 15.4 87 1.4 ENE 11 13 6 7 1017.5 1012.0 0.0
05/01:00am 17.8 17.5 15.4 86 1.5 E 11 13 6 7 1018.0 1012.5 0.0
05/12:30am 18.3 18.1 15.6 84 1.7 NE 11 17 6 9 1018.1 1012.7 0.0
05/12:00am 19.5 21.1 16.0 80 2.2 WSW 2 9 1 5 1018.3 1012.8 0.0
 
Date/Time
EDT
Temp
°C
App
Temp
°C
Dew
Point
°C
Rel
Hum
%
Delta-T
°C
Wind Press
QNH
hPa
Press
MSL
hPa
Rain since
9am
mm
Dir  Spd
km/h
Gust
km/h
Spd
kts
Gust
kts
04/11:30pm 20.0 22.1 16.2 79 2.4 CALM 0 0 0 0 1018.5 1013.0 0.0
04/11:00pm 19.6 21.6 15.9 79 2.3 CALM 0 0 0 0 1018.5 1013.0 0.0
04/10:30pm 20.2 21.1 16.0 77 2.6 SE 6 7 3 4 1018.5 1013.0 0.0
04/10:00pm 21.2 23.2 16.0 72 3.3 CALM 0 0 0 0 1018.6 1013.1 0.0
04/09:30pm 20.6 21.0 15.4 72 3.2 N 7 9 4 5 1018.3 1012.8 0.0
04/09:00pm 22.0 22.3 16.1 69 3.7 NNW 9 13 5 7 1018.4 1012.9 0.0
04/08:30pm 22.3 23.2 16.1 68 3.9 WSW 6 11 3 6 1018.3 1012.8 0.0
04/08:00pm 22.3 22.4 15.6 66 4.2 W 9 13 5 7 1017.7 1012.2 0.0
04/07:30pm 24.2 23.5 15.4 58 5.5 WSW 13 15 7 8 1017.7 1012.2 0.0
04/07:00pm 25.7 24.9 15.1 52 6.7 WSW 13 20 7 11 1017.7 1012.2 0.0
04/06:30pm 26.9 24.8 15.3 49 7.4 WSW 20 26 11 14 1017.5 1012.0 0.0
04/06:00pm 26.0 24.3 14.8 50 7.0 W 17 22 9 12 1017.3 1011.8 0.0
04/05:30pm 27.8 26.8 15.5 47 7.9 W 15 24 8 13 1016.9 1011.4 0.0
04/05:00pm 27.9 25.7 14.9 45 8.2 WSW 20 35 11 19 1017.1 1011.6 0.0
04/04:30pm 28.0 26.0 15.0 45 8.2 SW 19 35 10 19 1017.5 1012.0 0.0
04/04:00pm 26.6 23.3 14.0 46 7.8 WSW 24 35 13 19 1018.0 1012.5 0.0
04/03:30pm 28.0 24.9 14.6 44 8.5 WSW 24 35 13 19 1018.3 1012.8 0.0
04/03:00pm 27.4 24.0 15.7 48 7.5 WSW 28 37 15 20 1018.5 1013.0 0.0
04/02:30pm 27.8 23.4 15.1 46 8.1 W 32 43 17 23 1018.6 1013.1 0.0
04/02:00pm 27.5 23.4 14.8 45 8.0 WSW 30 43 16 23 1018.9 1013.4 0.0
04/01:30pm 26.6 23.5 15.6 50 7.0 W 26 39 14 21 1019.1 1013.7 0.0
04/01:00pm 26.6 24.3 17.7 58 5.8 WNW 26 39 14 21 1019.6 1014.1 0.0
04/12:30pm 25.5 22.7 16.4 57 5.8 WNW 26 39 14 21 1019.9 1014.5 0.0
04/12:00pm 25.3 22.4 17.0 60 5.4 W 28 37 15 20 1020.3 1014.8 0.0
04/11:30am 25.1 21.7 16.8 60 5.4 W 30 39 16 21 1020.4 1014.9 0.0
04/11:00am 24.0 20.4 16.3 62 4.9 W 30 39 16 21 1020.8 1015.4 0.0
04/10:30am 23.9 20.9 15.9 61 5.1 W 26 35 14 19 1020.8 1015.4 0.0
04/10:00am 23.4 21.1 16.7 66 4.3 WNW 24 33 13 18 1020.8 1015.4 0.0
04/09:30am 23.2 20.3 17.0 68 4.0 NW 28 33 15 18 1021.0 1015.6 0.0
04/09:00am 21.8 18.4 15.9 69 3.7 WNW 28 35 15 19 1020.9 1015.5 43.8
04/08:30am 20.9 17.5 15.7 72 3.3 WNW 28 37 15 20 1021.3 1015.8 43.8
04/08:00am 19.9 16.6 15.1 74 3.0 WNW 26 39 14 21 1021.0 1015.6 43.8
04/07:30am 18.9 17.3 15.0 78 2.4 WNW 17 24 9 13 1020.9 1015.5 43.8
04/07:00am 17.4 14.5 13.9 80 2.1 WNW 22 30 12 16 1020.8 1015.4 43.8
04/06:30am 17.5 14.4 13.4 77 2.4 NW 22 30 12 16 1020.6 1015.1 43.8
04/06:00am 17.0 15.6 13.3 79 2.2 WNW 13 20 7 11 1020.1 1014.7 43.8
04/05:30am 17.3 15.4 13.0 76 2.5 NW 15 20 8 11 1020.1 1014.7 43.8
04/05:00am 16.6 15.6 13.5 82 1.8 WNW 11 15 6 8 1020.0 1014.6 43.8
04/04:30am 16.1 17.0 13.9 87 1.3 SW 2 7 1 4 1019.7 1014.2 43.8
04/04:00am 16.3 16.8 14.1 87 1.3 SSW 4 9 2 5 1019.7 1014.2 43.8
04/03:30am 17.1 15.8 13.8 81 2.0 N 13 17 7 9 1020.0 1014.6 43.8
04/03:00am 17.1 16.0 14.2 83 1.7 N 13 19 7 10 1020.5 1015.0 43.8
04/02:30am 17.2 14.7 14.1 82 1.9 N 20 30 11 16 1020.9 1015.5 43.8
04/02:00am 17.1 14.8 14.0 82 1.9 N 19 24 10 13 1021.8 1016.4 43.8
04/01:30am 15.8 14.0 14.5 92 0.8 NNE 17 24 9 13 1022.9 1017.5 43.8
04/01:00am 15.9 14.0 15.1 95 0.5 NNE 19 24 10 13 1023.1 1017.8 43.6
04/12:30am 15.6 13.6 15.4 99 0.1 NNE 20 28 11 15 1023.0 1017.6 43.2
04/12:00am 15.4 12.9 15.2 99 0.1 NE 22 32 12 17 1023.9 1018.5 43.2
 
Date/Time
EDT
Temp
°C
App
Temp
°C
Dew
Point
°C
Rel
Hum
%
Delta-T
°C
Wind Press
QNH
hPa
Press
MSL
hPa
Rain since
9am
mm
Dir  Spd
km/h
Gust
km/h
Spd
kts
Gust
kts
03/11:30pm 15.5 12.3 15.3 99 0.1 ENE 26 35 14 19 1025.5 1020.1 39.8
03/11:00pm 15.7 13.7 15.5 99 0.1 NE 20 24 11 13 1026.4 1021.0 37.0
03/10:30pm 15.7 13.0 15.5 99 0.1 ENE 24 30 13 16 1027.0 1021.7 35.2
03/10:07pm 16.0 14.1 15.8 99 0.1 E 20 37 11 20 1026.5 1021.1 32.8
03/10:00pm 16.1 16.0 15.9 99 0.1 ENE 11 17 6 9 1027.7 1022.4 31.8
03/09:54pm 16.0 15.5 15.8 99 0.1 ENE 13 19 7 10 1027.7 1022.4 31.0
03/09:47pm 16.0 14.7 15.8 99 0.1 E 17 22 9 12 1027.5 1022.2 30.0
03/09:30pm 16.1 14.8 15.9 99 0.1 SSE 17 20 9 11 1027.2 1021.9 26.6
03/09:29pm 16.1 14.8 15.9 99 0.1 SSE 17 24 9 13 1027.4 1022.1 26.2
03/09:04pm 16.8 16.8 16.2 96 0.4 SW 11 19 6 10 1027.1 1021.8 19.6
03/09:00pm 16.4 15.9 15.8 96 0.4 SSW 13 20 7 11 1027.0 1021.7 18.6
03/08:54pm 16.6 15.7 15.8 95 0.5 SSW 15 20 8 11 1026.7 1021.4 17.4
03/08:37pm 17.0 14.9 16.2 95 0.5 S 22 35 12 19 1025.9 1020.6 15.0
03/08:35pm 17.2 15.2 16.4 95 0.5 S 22 35 12 19 1025.7 1020.4 14.6
03/08:30pm 17.2 15.5 16.2 94 0.6 SW 20 35 11 19 1025.5 1020.1 13.8
03/08:14pm 17.9 18.1 17.7 99 0.1 N 13 19 7 10 1023.8 1018.4 12.2
03/08:05pm 18.1 18.4 17.9 99 0.1 NNE 13 20 7 11 1023.4 1018.0 11.2
03/08:00pm 17.9 18.5 17.7 99 0.1 NNE 11 17 6 9 1023.2 1017.9 10.8
03/07:36pm 17.9 17.7 17.7 99 0.1 NE 15 17 8 9 1022.5 1017.1 9.2
03/07:30pm 17.9 17.7 17.7 99 0.1 NE 15 17 8 9 1022.4 1017.0 9.2
03/07:00pm 17.9 17.3 16.6 92 0.8 ENE 15 19 8 10 1022.5 1017.1 7.8
03/06:30pm 17.4 15.4 15.6 89 1.1 NE 20 26 11 14 1022.2 1016.8 7.8
03/06:00pm 18.1 16.3 17.0 93 0.7 ENE 22 30 12 16 1022.0 1016.6 7.8
03/05:30pm 18.9 16.5 16.5 86 1.5 ESE 24 32 13 17 1021.4 1015.9 7.8
03/05:00pm 18.6 18.7 16.4 87 1.4 ENE 11 19 6 10 1022.2 1016.8 7.8
03/04:30pm 18.9 18.3 17.6 92 0.8 NE 17 22 9 12 1021.8 1016.4 7.8
03/04:23pm 19.4 21.0 17.9 91 1.0 NW 6 13 3 7 1022.1 1016.7 7.8
03/04:09pm 18.6 18.5 16.9 90 1.1 E 13 26 7 14 1022.6 1017.2 7.8
03/04:00pm 19.0 18.0 18.0 94 0.6 E 20 28 11 15 1021.9 1016.5 7.8
03/03:48pm 19.6 17.3 17.6 88 1.3 ESE 26 33 14 18 1022.5 1017.1 5.0
03/03:30pm 22.2 22.0 18.4 79 2.5 ESE 17 26 9 14 1021.7 1016.3 0.4
03/03:00pm 24.2 23.5 17.4 65 4.4 ESE 17 22 9 12 1021.8 1016.4 0.0
03/02:58pm 24.5 23.7 17.2 63 4.7 ESE 17 22 9 12 1021.8 1016.4 0.0
03/02:30pm 25.8 25.5 18.2 63 5.0 E 17 22 9 12 1022.1 1016.7 0.0
03/02:00pm 25.7 25.5 18.4 64 4.8 ESE 17 24 9 13 1022.7 1017.3 0.0
03/01:30pm 26.2 27.2 18.6 63 5.1 ESE 11 17 6 9 1022.9 1017.5 0.0
03/01:00pm 25.2 25.0 17.7 63 4.9 SE 15 22 8 12 1023.4 1018.0 0.0
03/12:30pm 24.8 24.8 18.0 66 4.5 ESE 15 22 8 12 1023.4 1018.0 0.0
03/12:00pm 25.1 24.4 18.3 66 4.5 ESE 19 24 10 13 1023.2 1017.9 0.0
03/11:30am 23.9 23.6 18.3 71 3.7 ESE 17 22 9 12 1023.7 1018.3 0.0
03/11:00am 23.5 22.5 17.9 71 3.6 E 20 28 11 15 1023.2 1017.9 0.0
03/10:30am 22.5 22.0 18.7 79 2.5 ESE 19 28 10 15 1023.8 1018.4 0.0
03/10:00am 20.7 19.9 17.9 84 1.8 E 19 24 10 13 1024.0 1018.7 0.0
03/09:43am 19.8 18.0 17.8 88 1.3 E 24 32 13 17 1023.7 1018.3 0.0
03/09:30am 19.1 17.6 18.6 97 0.3 E 24 32 13 17 1023.9 1018.5 0.0
03/09:00am 17.5 15.5 17.5 100 0.0 E 24 33 13 18 1024.1 1018.8 13.8
03/08:30am 16.1 14.0 16.1 100 0.0 E 22 28 12 15 1024.4 1019.0 13.8
03/08:13am 16.2 14.5 16.2 100 0.0 E 20 28 11 15 1024.1 1018.8 13.8
03/08:00am 15.9 13.7 15.9 100 0.0 E 22 28 12 15 1024.0 1018.7 13.8
03/07:58am 15.7 13.4 15.7 100 0.0 E 22 28 12 15 1024.0 1018.7 13.8
03/07:47am 15.5 13.1 15.5 100 0.0 E 22 30 12 16 1023.9 1018.5 13.8
03/07:30am 15.3 12.5 15.3 100 0.0 E 24 32 13 17 1023.7 1018.3 13.8
03/07:00am 14.9 11.6 14.9 100 0.0 E 26 32 14 17 1023.5 1018.1 13.8
03/06:30am 14.8 12.6 14.8 100 0.0 E 20 28 11 15 1023.5 1018.1 13.8
03/06:00am 14.6 11.1 14.6 100 0.0 ENE 26 32 14 17 1023.4 1018.0 13.8
03/05:54am 14.6 11.5 14.6 100 0.0 E 24 32 13 17 1023.5 1018.1 13.8
03/05:48am 14.6 11.9 14.6 100 0.0 E 22 28 12 15 1023.5 1018.1 13.8
03/05:30am 14.4 11.2 14.2 99 0.1 E 24 30 13 16 1023.6 1018.2 13.8
03/05:00am 14.6 11.8 14.4 99 0.1 E 22 28 12 15 1023.5 1018.1 13.8
03/04:30am 14.7 12.3 14.5 99 0.1 E 20 28 11 15 1023.2 1017.9 13.8
03/04:00am 14.6 12.2 14.4 99 0.1 E 20 26 11 14 1023.4 1018.0 13.8
03/03:30am 14.6 11.5 14.4 99 0.1 E 24 30 13 16 1023.4 1018.0 13.8
03/03:00am 14.6 10.7 14.4 99 0.1 ENE 28 35 15 19 1023.5 1018.1 13.8
03/02:30am 14.8 12.1 14.6 99 0.1 ENE 22 28 12 15 1023.7 1018.3 13.8
03/02:00am 15.0 12.4 14.8 99 0.1 E 22 28 12 15 1023.7 1018.3 13.8
03/01:30am 15.2 12.3 15.0 99 0.1 E 24 30 13 16 1023.6 1018.2 13.8
03/01:13am 15.2 12.3 15.0 99 0.1 E 24 32 13 17 1024.0 1018.7 13.8
03/01:00am 15.3 12.8 15.1 99 0.1 E 22 28 12 15 1024.1 1018.8 13.8
03/12:30am 15.5 13.4 15.3 99 0.1 E 20 28 11 15 1024.2 1018.9 13.8
03/12:00am 15.7 14.7 15.5 99 0.1 ESE 15 20 8 11 1024.5 1019.1 13.8
 
Date/Time
EDT
Temp
°C
App
Temp
°C
Dew
Point
°C
Rel
Hum
%
Delta-T
°C
Wind Press
QNH
hPa
Press
MSL
hPa
Rain since
9am
mm
Dir  Spd
km/h
Gust
km/h
Spd
kts
Gust
kts
02/11:30pm 15.8 13.8 15.6 99 0.1 E 20 26 11 14 1024.4 1019.0 13.8
02/11:00pm 16.1 13.9 15.9 99 0.1 ESE 22 30 12 16 1024.4 1019.0 13.8
02/10:58pm 16.1 13.9 15.9 99 0.1 E 22 30 12 16 1024.4 1019.0 13.8
02/10:53pm 16.3 14.2 16.1 99 0.1 E 22 32 12 17 1024.6 1019.2 13.8
02/10:30pm 16.8 14.9 16.6 99 0.1 E 22 26 12 14 1024.9 1019.6 13.8
02/10:00pm 17.2 14.7 17.0 99 0.1 E 26 35 14 19 1024.6 1019.2 13.8
02/09:45pm 17.7 15.0 17.5 99 0.1 ENE 28 39 15 21 1024.5 1019.1 13.8
02/09:43pm 17.8 15.1 17.6 99 0.1 ENE 28 35 15 19 1024.5 1019.1 13.8
02/09:38pm 17.9 14.5 17.7 99 0.1 E 32 48 17 26 1023.8 1018.4 13.8
02/09:30pm 18.2 14.9 17.9 98 0.2 ESE 32 43 17 23 1023.4 1018.0 13.6
02/09:25pm 18.5 17.1 18.0 97 0.3 E 22 43 12 23 1023.9 1018.5 12.8
02/09:00pm 19.5 18.1 18.0 91 1.0 ENE 22 32 12 17 1024.5 1019.1 9.4
02/08:57pm 19.7 18.2 17.8 89 1.2 ENE 22 32 12 17 1024.4 1019.0 9.4
02/08:43pm 19.5 18.2 18.2 92 0.8 E 22 32 12 17 1023.9 1018.5 9.4
02/08:33pm 20.3 16.8 16.5 79 2.4 E 30 39 16 21 1023.7 1018.3 9.4
02/08:30pm 20.3 16.9 16.7 80 2.3 E 30 39 16 21 1023.6 1018.2 9.4
02/08:21pm 20.3 17.1 16.3 78 2.5 ENE 28 41 15 22 1023.4 1018.0 9.4
02/08:00pm 20.1 20.1 18.1 88 1.3 NNE 15 20 8 11 1024.4 1019.0 9.4
02/07:52pm 20.1 20.2 18.4 90 1.1 NNE 15 20 8 11 1024.5 1019.1 9.4
02/07:30pm 20.3 18.5 18.8 91 1.0 NE 26 33 14 18 1022.4 1017.0 9.4
02/07:12pm 20.6 19.0 19.1 91 1.0 NE 26 39 14 21 1022.0 1016.6 9.2
02/07:00pm 20.8 21.9 19.6 93 0.8 ENE 13 17 7 9 1023.1 1017.8 9.0
02/06:30pm 20.7 20.5 19.4 92 0.9 E 19 28 10 15 1021.6 1016.2 9.0
02/06:00pm 21.3 22.9 19.2 88 1.4 ENE 9 17 5 9 1022.5 1017.1 8.0
02/05:58pm 21.3 22.6 19.4 89 1.3 ENE 11 20 6 11 1022.4 1017.0 8.0
02/05:48pm 21.2 21.4 19.3 89 1.3 ENE 17 24 9 13 1021.0 1015.6 8.0
02/05:30pm 21.2 20.0 19.3 89 1.3 E 24 35 13 19 1020.1 1014.7 8.0
02/05:21pm 20.9 19.8 19.4 91 1.0 ENE 24 28 13 15 1020.4 1014.9 8.0

Other formats

Comma delimited format used in spreadsheet applications
http://www.bom.gov.au/fwo/IDN60801/IDN60801.95773.axf

JavaScript Object Notation format (JSON) in row-major order
http://www.bom.gov.au/fwo/IDN60801/IDN60801.95773.json

Data quality

Most of these data are generated automatically and are frequently updated. Quality checks on data are not normally performed. It is possible for incorrect values to appear. Refer to information at About Latest Weather Observations and please check the disclaimer before using these data.